sensor_id;sensor_type;location;lat;lon;timestamp;P1;durP1;ratioP1;P2;durP2;ratioP2
59440;SDS011;45245;51.538;11.870;2022-10-16T09:40:04;2.88;;;1.10;;
59440;SDS011;45245;51.538;11.870;2022-10-16T09:42:30;1.52;;;1.00;;
59440;SDS011;45245;51.538;11.870;2022-10-16T09:44:57;2.47;;;1.10;;
59440;SDS011;45245;51.538;11.870;2022-10-16T09:47:23;1.50;;;1.00;;
59440;SDS011;45245;51.538;11.870;2022-10-16T09:49:58;3.10;;;1.10;;
59440;SDS011;45245;51.538;11.870;2022-10-16T09:52:27;1.60;;;0.93;;
59440;SDS011;45245;51.538;11.870;2022-10-16T09:54:54;1.60;;;1.00;;
59440;SDS011;45245;51.538;11.870;2022-10-16T09:57:24;2.28;;;1.00;;
59440;SDS011;45245;51.538;11.870;2022-10-16T09:59:51;1.83;;;1.00;;
59440;SDS011;45245;51.538;11.870;2022-10-16T10:02:41;1.90;;;1.00;;
59440;SDS011;45245;51.538;11.870;2022-10-16T10:05:17;1.35;;;0.90;;
59440;SDS011;45245;51.538;11.870;2022-10-16T10:07:44;2.22;;;0.95;;
59440;SDS011;45245;51.538;11.870;2022-10-16T10:10:24;2.17;;;0.90;;
59440;SDS011;45245;51.538;11.870;2022-10-16T10:12:52;2.75;;;0.82;;
59440;SDS011;45245;51.538;11.870;2022-10-16T10:15:18;1.17;;;0.80;;
59440;SDS011;45245;51.538;11.870;2022-10-16T10:22:51;1.40;;;0.80;;
59440;SDS011;45245;51.538;11.870;2022-10-16T10:25:24;1.27;;;0.75;;
59440;SDS011;45245;51.538;11.870;2022-10-16T10:28:06;1.40;;;0.90;;
59440;SDS011;45245;51.538;11.870;2022-10-16T10:30:56;1.30;;;0.80;;
59440;SDS011;45245;51.538;11.870;2022-10-16T10:41:27;1.33;;;0.70;;
59440;SDS011;45245;51.538;11.870;2022-10-16T10:44:20;1.33;;;0.70;;
59440;SDS011;45245;51.538;11.870;2022-10-16T10:58:14;1.40;;;0.80;;
59440;SDS011;45245;51.538;11.870;2022-10-16T11:05:57;1.30;;;0.80;;
59440;SDS011;45245;51.538;11.870;2022-10-16T11:08:35;2.38;;;0.88;;
59440;SDS011;45245;51.538;11.870;2022-10-16T11:11:23;1.42;;;0.90;;
59440;SDS011;45245;51.538;11.870;2022-10-16T11:19:10;2.20;;;1.00;;
59440;SDS011;45245;51.538;11.870;2022-10-16T11:21:41;1.60;;;0.80;;
59440;SDS011;45245;51.538;11.870;2022-10-16T11:24:19;2.85;;;0.85;;
59440;SDS011;45245;51.538;11.870;2022-10-16T11:26:48;1.48;;;0.88;;
59440;SDS011;45245;51.538;11.870;2022-10-16T11:29:17;1.40;;;1.00;;
59440;SDS011;45245;51.538;11.870;2022-10-16T11:31:48;1.40;;;0.80;;
59440;SDS011;45245;51.538;11.870;2022-10-16T11:34:30;1.52;;;0.90;;
59440;SDS011;45245;51.538;11.870;2022-10-16T11:37:10;1.40;;;0.80;;
59440;SDS011;45245;51.538;11.870;2022-10-16T11:39:38;1.30;;;0.82;;
59440;SDS011;45245;51.538;11.870;2022-10-16T11:44:52;1.60;;;1.00;;
59440;SDS011;45245;51.538;11.870;2022-10-16T11:50:13;1.70;;;1.00;;
59440;SDS011;45245;51.538;11.870;2022-10-16T11:52:51;2.30;;;0.88;;
59440;SDS011;45245;51.538;11.870;2022-10-16T11:55:22;1.30;;;0.90;;
59440;SDS011;45245;51.538;11.870;2022-10-16T11:57:52;2.03;;;0.80;;
59440;SDS011;45245;51.538;11.870;2022-10-16T12:00:28;1.48;;;0.90;;
59440;SDS011;45245;51.538;11.870;2022-10-16T12:03:03;1.50;;;0.70;;
59440;SDS011;45245;51.538;11.870;2022-10-16T12:08:27;1.33;;;0.82;;
59440;SDS011;45245;51.538;11.870;2022-10-16T12:10:53;1.75;;;0.82;;
59440;SDS011;45245;51.538;11.870;2022-10-16T12:13:36;1.27;;;0.80;;
59440;SDS011;45245;51.538;11.870;2022-10-16T12:18:42;1.50;;;0.88;;
59440;SDS011;45245;51.538;11.870;2022-10-16T12:21:09;1.88;;;0.90;;
59440;SDS011;45245;51.538;11.870;2022-10-16T15:15:21;1.10;;;0.65;;
59440;SDS011;45245;51.538;11.870;2022-10-16T15:17:49;2.00;;;0.63;;
59440;SDS011;45245;51.538;11.870;2022-10-16T15:20:17;1.00;;;0.60;;
59440;SDS011;45245;51.538;11.870;2022-10-16T15:22:43;2.70;;;0.70;;
59440;SDS011;45245;51.538;11.870;2022-10-16T15:25:25;1.73;;;0.65;;
59440;SDS011;45245;51.538;11.870;2022-10-16T15:27:54;1.20;;;0.70;;
59440;SDS011;45245;51.538;11.870;2022-10-16T15:30:20;1.50;;;0.70;;
59440;SDS011;45245;51.538;11.870;2022-10-16T15:32:45;1.38;;;0.70;;
59440;SDS011;45245;51.538;11.870;2022-10-16T15:35:10;2.28;;;0.80;;
59440;SDS011;45245;51.538;11.870;2022-10-16T15:37:36;1.05;;;0.60;;
59440;SDS011;45245;51.538;11.870;2022-10-16T15:40:01;1.27;;;0.60;;
59440;SDS011;45245;51.538;11.870;2022-10-16T15:42:27;1.35;;;0.80;;
59440;SDS011;45245;51.538;11.870;2022-10-16T15:44:52;1.20;;;0.70;;
59440;SDS011;45245;51.538;11.870;2022-10-16T15:47:17;1.40;;;0.70;;
59440;SDS011;45245;51.538;11.870;2022-10-16T15:49:43;1.75;;;0.77;;
59440;SDS011;45245;51.538;11.870;2022-10-16T15:52:08;1.50;;;0.82;;
59440;SDS011;45245;51.538;11.870;2022-10-16T15:54:34;1.88;;;0.90;;
59440;SDS011;45245;51.538;11.870;2022-10-16T15:56:59;1.88;;;0.80;;
59440;SDS011;45245;51.538;11.870;2022-10-16T15:59:25;2.38;;;0.70;;
59440;SDS011;45245;51.538;11.870;2022-10-16T16:01:50;1.73;;;0.65;;
59440;SDS011;45245;51.538;11.870;2022-10-16T16:04:15;1.92;;;0.80;;
59440;SDS011;45245;51.538;11.870;2022-10-16T16:06:41;1.48;;;0.82;;
59440;SDS011;45245;51.538;11.870;2022-10-16T16:09:09;2.88;;;0.88;;
59440;SDS011;45245;51.538;11.870;2022-10-16T16:11:38;2.38;;;0.73;;
59440;SDS011;45245;51.538;11.870;2022-10-16T16:14:04;2.75;;;0.70;;
